createdAt,value
2023-05-06T00:00:10.583Z,13.12
2023-05-06T00:01:10.553Z,13.11
2023-05-06T00:02:10.521Z,13.07
2023-05-06T00:03:10.568Z,13.11
2023-05-06T00:04:10.538Z,13.07
2023-05-06T00:05:10.738Z,13.06
2023-05-06T00:06:10.473Z,13.07
2023-05-06T00:07:10.488Z,13.07
2023-05-06T00:08:10.465Z,13.03
2023-05-06T00:09:10.425Z,13.07
2023-05-06T00:10:10.456Z,13.04
2023-05-06T00:11:10.398Z,13.00
2023-05-06T00:12:10.397Z,12.99
2023-05-06T00:13:10.382Z,12.99
2023-05-06T00:14:10.361Z,12.99
2023-05-06T00:15:10.545Z,12.97
2023-05-06T00:16:10.357Z,12.99
2023-05-06T00:17:10.323Z,12.99
2023-05-06T00:18:10.386Z,12.97
2023-05-06T00:19:10.283Z,12.96
2023-05-06T00:20:10.279Z,12.93
2023-05-06T00:21:10.290Z,12.92
2023-05-06T00:22:10.259Z,12.89
2023-05-06T00:23:10.267Z,12.87
2023-05-06T00:24:10.261Z,12.87
2023-05-06T00:25:10.506Z,12.85
2023-05-06T00:26:10.218Z,12.84
2023-05-06T00:27:10.165Z,12.85
2023-05-06T00:28:10.167Z,12.82
2023-05-06T00:29:10.148Z,12.85
2023-05-06T00:30:10.152Z,12.82
2023-05-06T00:31:10.149Z,12.82
2023-05-06T00:32:10.129Z,12.82
2023-05-06T00:33:10.193Z,12.85
2023-05-06T00:34:10.129Z,12.84
2023-05-06T00:35:10.464Z,12.84
2023-05-06T00:36:10.047Z,12.85
2023-05-06T00:37:10.046Z,12.84
2023-05-06T00:38:10.020Z,12.81
2023-05-06T00:39:10.040Z,12.85
2023-05-06T00:40:10.018Z,12.84
2023-05-06T00:41:10.009Z,12.79
2023-05-06T00:42:09.988Z,12.84
2023-05-06T00:43:09.959Z,12.82
2023-05-06T00:44:09.949Z,12.79
2023-05-06T00:45:10.221Z,12.81
2023-05-06T00:46:09.976Z,12.77
2023-05-06T00:47:09.985Z,12.74
2023-05-06T00:48:09.956Z,12.75
2023-05-06T00:49:09.940Z,12.70
2023-05-06T00:50:09.886Z,12.67
2023-05-06T00:51:09.853Z,12.66
2023-05-06T00:52:09.844Z,12.66
2023-05-06T00:53:09.820Z,12.67
2023-05-06T00:54:09.859Z,12.66
2023-05-06T00:55:10.020Z,12.64
2023-05-06T00:56:09.809Z,12.62
2023-05-06T00:57:09.759Z,12.62
2023-05-06T00:58:09.806Z,12.59
2023-05-06T00:59:09.747Z,12.56
2023-05-06T01:00:09.723Z,12.57
2023-05-06T01:01:09.757Z,12.54
2023-05-06T01:02:09.729Z,12.54
2023-05-06T01:03:09.900Z,12.51
2023-05-06T01:04:09.704Z,12.51
2023-05-06T01:05:09.885Z,12.49
2023-05-06T01:06:09.672Z,12.49
2023-05-06T01:07:09.626Z,12.51
2023-05-06T01:08:09.648Z,12.52
2023-05-06T01:09:09.622Z,12.54
2023-05-06T01:10:09.605Z,12.52
2023-05-06T01:11:09.574Z,12.51
2023-05-06T01:12:09.606Z,12.49
2023-05-06T01:13:09.619Z,12.51
2023-05-06T01:14:09.541Z,12.49
2023-05-06T01:15:09.781Z,12.46
2023-05-06T01:16:09.547Z,12.48
2023-05-06T01:17:09.695Z,12.48
2023-05-06T01:18:09.550Z,12.48
2023-05-06T01:19:09.486Z,12.45
2023-05-06T01:20:09.460Z,12.45
2023-05-06T01:21:09.493Z,12.46
2023-05-06T01:22:09.463Z,12.44
2023-05-06T01:23:09.425Z,12.45
2023-05-06T01:24:09.409Z,12.42
2023-05-06T01:25:09.725Z,12.44
2023-05-06T01:26:09.402Z,12.44
2023-05-06T01:27:09.374Z,12.41
2023-05-06T01:28:09.351Z,12.41
2023-05-06T01:29:09.332Z,12.42
2023-05-06T01:30:09.335Z,12.42
2023-05-06T01:31:09.398Z,12.42
2023-05-06T01:32:09.314Z,12.38
2023-05-06T01:33:09.292Z,12.31
2023-05-06T01:34:09.396Z,12.33
2023-05-06T01:35:09.405Z,12.34
2023-05-06T01:36:09.261Z,12.34
2023-05-06T01:37:09.208Z,12.33
2023-05-06T01:38:09.220Z,12.30
2023-05-06T01:39:09.217Z,12.27
2023-05-06T01:40:09.211Z,12.27
2023-05-06T01:41:09.194Z,12.24
2023-05-06T01:42:09.163Z,12.26
2023-05-06T01:43:09.143Z,12.24
2023-05-06T01:44:09.173Z,12.24
2023-05-06T01:45:09.321Z,12.26
2023-05-06T01:46:09.161Z,12.27
2023-05-06T01:47:09.090Z,12.26
2023-05-06T01:48:09.144Z,12.24
2023-05-06T01:49:09.083Z,12.21
2023-05-06T01:50:09.043Z,12.19
2023-05-06T01:51:09.041Z,12.19
2023-05-06T01:52:09.029Z,12.21
2023-05-06T01:53:09.032Z,12.20
2023-05-06T01:54:09.016Z,12.19
2023-05-06T01:55:09.133Z,12.23
2023-05-06T01:56:08.975Z,12.26
2023-05-06T01:57:08.947Z,12.26
2023-05-06T01:58:08.960Z,12.27
2023-05-06T01:59:08.940Z,12.26
2023-05-06T02:00:08.909Z,12.24
2023-05-06T02:01:08.900Z,12.26
2023-05-06T02:02:09.196Z,12.24
2023-05-06T02:03:09.024Z,12.23
2023-05-06T02:04:08.943Z,12.23
2023-05-06T02:05:09.052Z,12.23
2023-05-06T02:06:08.834Z,12.24
2023-05-06T02:07:08.815Z,12.23
2023-05-06T02:08:08.899Z,12.20
2023-05-06T02:09:08.778Z,12.23
2023-05-06T02:10:08.788Z,12.19
2023-05-06T02:11:08.759Z,12.16
2023-05-06T02:12:08.762Z,12.12
2023-05-06T02:13:08.799Z,12.13
2023-05-06T02:14:08.724Z,12.12
2023-05-06T02:15:08.811Z,12.11
2023-05-06T02:16:08.780Z,12.06
2023-05-06T02:17:08.680Z,12.05
2023-05-06T02:18:08.689Z,12.06
2023-05-06T02:19:08.643Z,12.04
2023-05-06T02:20:08.646Z,12.02
2023-05-06T02:21:08.609Z,12.01
2023-05-06T02:22:08.695Z,12.02
2023-05-06T02:23:08.612Z,12.04
2023-05-06T02:24:08.578Z,12.04
2023-05-06T02:25:08.780Z,12.04
2023-05-06T02:26:08.563Z,12.09
2023-05-06T02:27:08.641Z,12.06
2023-05-06T02:28:08.530Z,12.06
2023-05-06T02:29:08.520Z,12.06
2023-05-06T02:30:08.509Z,12.02
2023-05-06T02:31:08.535Z,12.06
2023-05-06T02:32:08.500Z,12.05
2023-05-06T02:33:08.485Z,12.02
2023-05-06T02:34:08.455Z,12.05
2023-05-06T02:35:08.696Z,11.99
2023-05-06T02:36:08.436Z,12.01
2023-05-06T02:37:08.408Z,12.02
2023-05-06T02:38:08.392Z,12.05
2023-05-06T02:39:08.373Z,12.04
2023-05-06T02:40:08.394Z,12.01
2023-05-06T02:41:08.373Z,12.05
2023-05-06T02:42:08.328Z,12.01
2023-05-06T02:43:08.326Z,12.02
2023-05-06T02:44:08.312Z,12.02
2023-05-06T02:45:08.431Z,12.01
2023-05-06T02:46:08.328Z,12.04
2023-05-06T02:47:08.393Z,12.02
2023-05-06T02:48:08.276Z,11.99
2023-05-06T02:49:08.246Z,11.99
2023-05-06T02:50:08.252Z,11.97
2023-05-06T02:51:08.199Z,11.96
2023-05-06T02:52:08.234Z,11.97
2023-05-06T02:53:08.201Z,12.02
2023-05-06T02:54:08.183Z,11.99
2023-05-06T02:55:08.383Z,11.97
2023-05-06T02:56:08.172Z,11.97
2023-05-06T02:57:08.133Z,11.97
2023-05-06T02:58:08.123Z,11.97
2023-05-06T02:59:08.130Z,12.04
2023-05-06T03:00:08.123Z,12.01
2023-05-06T03:01:08.151Z,12.04
2023-05-06T03:02:08.058Z,12.04
2023-05-06T03:03:08.098Z,12.04
2023-05-06T03:04:08.075Z,12.08
2023-05-06T03:05:08.168Z,12.06
2023-05-06T03:06:08.022Z,12.06
2023-05-06T03:07:07.989Z,12.11
2023-05-06T03:08:07.987Z,12.12
2023-05-06T03:09:07.978Z,12.13
2023-05-06T03:10:07.968Z,12.12
2023-05-06T03:11:08.361Z,12.15
2023-05-06T03:12:07.916Z,12.13
2023-05-06T03:13:07.963Z,12.16
2023-05-06T03:14:07.948Z,12.12
2023-05-06T03:15:07.970Z,12.12
2023-05-06T03:16:07.857Z,12.15
2023-05-06T03:17:07.912Z,12.13
2023-05-06T03:18:07.926Z,12.12
2023-05-06T03:19:07.838Z,12.12
2023-05-06T03:20:07.812Z,12.15
2023-05-06T03:21:07.856Z,12.13
2023-05-06T03:22:07.805Z,12.13
2023-05-06T03:23:07.790Z,12.16
2023-05-06T03:24:07.776Z,12.12
2023-05-06T03:25:08.129Z,12.15
2023-05-06T03:26:07.740Z,12.16
2023-05-06T03:27:07.729Z,12.12
2023-05-06T03:28:07.708Z,12.11
2023-05-06T03:29:07.676Z,12.12
2023-05-06T03:30:07.668Z,12.12
2023-05-06T03:31:07.700Z,12.09
2023-05-06T03:32:07.673Z,12.13
2023-05-06T03:34:07.661Z,12.15
2023-05-06T03:35:07.744Z,12.13
2023-05-06T03:36:07.607Z,12.09
2023-05-06T03:37:07.653Z,12.09
2023-05-06T03:38:07.569Z,12.08
2023-05-06T03:39:07.561Z,12.11
2023-05-06T03:40:07.562Z,12.11
2023-05-06T03:41:07.515Z,12.08
2023-05-06T03:42:09.196Z,12.09
2023-05-06T03:43:07.522Z,12.06
2023-05-06T03:44:07.502Z,12.08
2023-05-06T03:45:07.548Z,12.09
2023-05-06T03:46:07.551Z,12.09
2023-05-06T03:47:07.442Z,12.09
2023-05-06T03:48:07.485Z,12.12
2023-05-06T03:49:07.434Z,12.06
2023-05-06T03:50:07.402Z,12.09
2023-05-06T03:51:07.400Z,12.06
2023-05-06T03:52:07.377Z,12.06
2023-05-06T03:53:07.368Z,12.09
2023-05-06T03:54:07.337Z,12.08
2023-05-06T03:55:07.464Z,12.09
2023-05-06T03:56:07.329Z,12.08
2023-05-06T03:57:07.330Z,12.09
2023-05-06T03:58:07.285Z,12.08
2023-05-06T03:59:07.292Z,12.08
2023-05-06T04:00:07.278Z,12.09
2023-05-06T04:01:07.250Z,12.11
2023-05-06T04:02:07.332Z,12.15
2023-05-06T04:03:07.289Z,12.13
2023-05-06T04:04:07.252Z,12.13
2023-05-06T04:05:07.313Z,12.13
2023-05-06T04:06:07.178Z,12.13
2023-05-06T04:07:07.178Z,12.15
2023-05-06T04:08:07.144Z,12.15
2023-05-06T04:09:07.160Z,12.15
2023-05-06T04:10:07.141Z,12.15
2023-05-06T04:11:07.113Z,12.09
2023-05-06T04:12:07.113Z,12.15
2023-05-06T04:13:07.133Z,12.13
2023-05-06T04:14:07.073Z,12.13
2023-05-06T04:15:07.100Z,12.21
2023-05-06T04:16:07.291Z,12.19
2023-05-06T04:17:07.798Z,12.21
2023-05-06T04:18:07.070Z,12.19
2023-05-06T04:19:07.049Z,12.19
2023-05-06T04:20:06.985Z,12.16
2023-05-06T04:21:06.971Z,12.15
2023-05-06T04:22:06.940Z,12.15
2023-05-06T04:23:06.981Z,12.13
2023-05-06T04:24:06.965Z,12.11
2023-05-06T04:25:06.912Z,12.11
2023-05-06T04:26:06.895Z,12.13
2023-05-06T04:27:06.915Z,12.15
2023-05-06T04:28:06.892Z,12.15
2023-05-06T04:29:06.854Z,12.20
2023-05-06T04:30:06.854Z,12.21
2023-05-06T04:31:06.839Z,12.21
2023-05-06T04:32:06.905Z,12.13
2023-05-06T04:33:06.869Z,12.16
2023-05-06T04:34:06.803Z,12.16
2023-05-06T04:35:06.792Z,12.15
2023-05-06T04:36:06.755Z,12.15
2023-05-06T04:37:06.774Z,12.15
2023-05-06T04:38:06.749Z,12.15
2023-05-06T04:39:06.782Z,12.13
2023-05-06T04:40:06.754Z,12.15
2023-05-06T04:41:06.696Z,12.16
2023-05-06T04:42:06.713Z,12.15
2023-05-06T04:43:06.668Z,12.19
2023-05-06T04:44:06.659Z,12.20
2023-05-06T04:45:06.712Z,12.23
2023-05-06T04:46:06.655Z,12.26
2023-05-06T04:47:06.637Z,12.24
2023-05-06T04:48:06.606Z,12.24
2023-05-06T04:49:06.578Z,12.26
2023-05-06T04:50:06.584Z,12.24
2023-05-06T04:51:06.600Z,12.26
2023-05-06T04:52:06.547Z,12.26
2023-05-06T04:53:06.531Z,12.27
2023-05-06T04:54:06.510Z,12.31
2023-05-06T04:55:06.597Z,12.29
2023-05-06T04:56:06.498Z,12.30
2023-05-06T04:57:06.490Z,12.30
2023-05-06T04:58:06.454Z,12.29
2023-05-06T04:59:06.455Z,12.27
2023-05-06T05:00:06.463Z,12.23
2023-05-06T05:01:06.453Z,12.21
2023-05-06T05:02:06.481Z,12.24
2023-05-06T05:03:06.469Z,12.20
2023-05-06T05:04:06.393Z,12.23
2023-05-06T05:05:06.384Z,12.24
2023-05-06T05:06:06.380Z,12.26
2023-05-06T05:07:06.341Z,12.24
2023-05-06T05:08:06.315Z,12.26
2023-05-06T05:09:06.312Z,12.27
2023-05-06T05:10:06.329Z,12.30
2023-05-06T05:11:06.284Z,12.30
2023-05-06T05:12:06.265Z,12.37
2023-05-06T05:13:06.397Z,12.38
2023-05-06T05:14:06.253Z,12.37
2023-05-06T05:15:06.260Z,12.38
2023-05-06T05:16:06.215Z,12.38
2023-05-06T05:17:06.222Z,12.37
2023-05-06T05:18:06.314Z,12.37
2023-05-06T05:19:08.334Z,12.38
2023-05-06T05:20:06.184Z,12.42
2023-05-06T05:21:06.160Z,12.45
2023-05-06T05:22:06.171Z,12.49
2023-05-06T05:23:06.158Z,12.48
2023-05-06T05:24:06.158Z,12.48
2023-05-06T05:25:07.827Z,12.49
2023-05-06T05:26:06.078Z,12.49
2023-05-06T05:27:06.114Z,12.51
2023-05-06T05:28:06.099Z,12.52
2023-05-06T05:29:06.127Z,12.49
2023-05-06T05:30:06.024Z,12.49
2023-05-06T05:31:06.912Z,12.49
2023-05-06T05:32:05.988Z,12.51
2023-05-06T05:33:06.072Z,12.51
2023-05-06T05:34:05.955Z,12.51
2023-05-06T05:35:05.979Z,12.46
2023-05-06T05:36:05.937Z,12.46
2023-05-06T05:37:05.934Z,12.52
2023-05-06T05:38:05.916Z,12.59
2023-05-06T05:39:05.915Z,12.66
2023-05-06T05:40:05.884Z,12.75
2023-05-06T05:41:05.891Z,12.84
2023-05-06T05:42:05.879Z,12.89
2023-05-06T05:43:05.866Z,12.92
2023-05-06T05:44:05.862Z,12.85
2023-05-06T05:45:05.825Z,12.87
2023-05-06T05:46:05.855Z,12.92
2023-05-06T05:47:05.803Z,12.93
2023-05-06T05:48:05.819Z,12.93
2023-05-06T05:49:05.764Z,12.95
2023-05-06T05:50:05.766Z,12.95
2023-05-06T05:51:05.759Z,12.99
2023-05-06T05:52:05.734Z,12.97
2023-05-06T05:53:05.741Z,12.96
2023-05-06T05:54:05.707Z,12.96
2023-05-06T05:55:05.703Z,12.97
2023-05-06T05:56:05.673Z,12.93
2023-05-06T05:57:05.691Z,12.89
2023-05-06T05:58:05.669Z,12.88
2023-05-06T05:59:05.640Z,12.95
2023-05-06T06:00:05.608Z,12.96
2023-05-06T06:01:05.607Z,12.89
2023-05-06T06:02:05.626Z,12.85
2023-05-06T06:03:05.643Z,12.82
2023-05-06T06:04:05.758Z,12.77
2023-05-06T06:05:05.552Z,12.78
2023-05-06T06:06:05.594Z,12.78
2023-05-06T06:07:05.544Z,12.81
2023-05-06T06:08:05.502Z,12.75
2023-05-06T06:09:05.594Z,12.75
2023-05-06T06:10:05.632Z,12.75
2023-05-06T06:11:05.493Z,12.71
2023-05-06T06:12:05.453Z,12.77
2023-05-06T06:13:05.449Z,12.82
2023-05-06T06:14:05.466Z,12.87
2023-05-06T06:15:05.457Z,12.87
2023-05-06T06:16:05.469Z,12.96
2023-05-06T06:17:05.391Z,13.00
2023-05-06T06:18:05.421Z,13.03
2023-05-06T06:19:05.391Z,13.07
2023-05-06T06:20:05.385Z,13.12
2023-05-06T06:21:05.363Z,13.17
2023-05-06T06:22:05.514Z,13.18
2023-05-06T06:23:05.303Z,13.18
2023-05-06T06:24:05.329Z,13.21
2023-05-06T06:25:05.286Z,13.22
2023-05-06T06:26:05.264Z,13.22
2023-05-06T06:27:05.290Z,13.21
2023-05-06T06:28:05.236Z,13.22
2023-05-06T06:29:05.229Z,13.21
2023-05-06T06:30:05.236Z,13.24
2023-05-06T06:31:05.229Z,13.25
2023-05-06T06:32:05.235Z,13.30
2023-05-06T06:33:05.183Z,13.27
2023-05-06T06:34:05.219Z,13.33
2023-05-06T06:35:05.141Z,13.32
2023-05-06T06:36:05.115Z,13.38
2023-05-06T06:37:07.447Z,13.44
2023-05-06T06:38:05.119Z,13.46
2023-05-06T06:39:05.110Z,13.47
2023-05-06T06:40:05.060Z,13.46
2023-05-06T06:41:05.060Z,13.47
2023-05-06T06:42:05.041Z,13.51
2023-05-06T06:43:05.341Z,13.55
2023-05-06T06:44:05.007Z,13.59
2023-05-06T06:45:05.022Z,13.59
2023-05-06T06:46:05.021Z,13.61
2023-05-06T06:47:04.990Z,13.59
2023-05-06T06:48:05.018Z,13.62
2023-05-06T06:49:04.946Z,13.62
2023-05-06T06:50:04.968Z,13.63
2023-05-06T06:51:04.928Z,13.61
2023-05-06T06:52:04.910Z,13.63
2023-05-06T06:53:06.377Z,13.70
2023-05-06T06:54:04.883Z,13.74
2023-05-06T06:55:04.884Z,13.79
2023-05-06T06:56:04.884Z,13.83
2023-05-06T06:57:04.857Z,13.87
2023-05-06T06:58:04.837Z,13.88
2023-05-06T06:59:04.816Z,13.94
2023-05-06T07:00:04.814Z,13.95
2023-05-06T07:01:04.819Z,14.01
2023-05-06T07:02:04.795Z,14.07
2023-05-06T07:03:04.781Z,14.10
2023-05-06T07:04:07.035Z,14.17
2023-05-06T07:05:04.759Z,14.20
2023-05-06T07:06:04.775Z,14.20
2023-05-06T07:07:04.734Z,14.27
2023-05-06T07:08:04.672Z,14.31
2023-05-06T07:09:04.687Z,14.34
2023-05-06T07:10:04.662Z,14.34
2023-05-06T07:11:04.717Z,14.38
2023-05-06T07:12:04.664Z,14.42
2023-05-06T07:13:04.638Z,14.47
2023-05-06T07:14:04.602Z,14.50
2023-05-06T07:15:04.625Z,14.52
2023-05-06T07:16:04.603Z,14.47
2023-05-06T07:17:04.582Z,14.50
2023-05-06T07:18:04.598Z,14.50
2023-05-06T07:19:04.544Z,14.60
2023-05-06T07:20:04.553Z,14.67
2023-05-06T07:21:04.517Z,14.72
2023-05-06T07:22:04.493Z,14.86
2023-05-06T07:23:04.482Z,14.93
2023-05-06T07:24:04.466Z,14.99
2023-05-06T07:25:04.468Z,15.05
2023-05-06T07:26:04.443Z,15.01
2023-05-06T07:27:04.429Z,15.06
2023-05-06T07:28:04.420Z,15.17
2023-05-06T07:29:04.405Z,15.19
2023-05-06T07:30:04.524Z,15.23
2023-05-06T07:31:04.429Z,15.31
2023-05-06T07:32:04.375Z,15.31
2023-05-06T07:33:04.372Z,15.42
2023-05-06T07:34:04.334Z,15.51
2023-05-06T07:35:04.341Z,15.51
2023-05-06T07:36:04.310Z,15.56
2023-05-06T07:37:04.299Z,15.63
2023-05-06T07:38:04.270Z,15.67
2023-05-06T07:39:04.314Z,15.70
2023-05-06T07:40:04.248Z,15.72
2023-05-06T07:41:04.242Z,15.72
2023-05-06T07:42:04.224Z,15.67
2023-05-06T07:43:04.234Z,15.63
2023-05-06T07:44:04.243Z,15.68
2023-05-06T07:45:04.209Z,15.68
2023-05-06T07:46:04.231Z,15.75
2023-05-06T07:47:04.331Z,15.78
2023-05-06T07:48:04.193Z,15.78
2023-05-06T07:49:04.177Z,15.82
2023-05-06T07:50:04.142Z,15.88
2023-05-06T07:51:04.100Z,15.92
2023-05-06T07:52:04.121Z,15.92
2023-05-06T07:53:04.152Z,15.89
2023-05-06T07:54:04.081Z,15.92
2023-05-06T07:55:04.047Z,15.93
2023-05-06T07:56:04.029Z,15.89
2023-05-06T07:57:04.019Z,15.94
2023-05-06T07:58:04.061Z,15.94
2023-05-06T07:59:03.985Z,15.97
2023-05-06T08:00:03.977Z,16.03
2023-05-06T08:01:03.958Z,16.07
2023-05-06T08:02:04.026Z,16.06
2023-05-06T08:03:04.105Z,15.96
2023-05-06T08:04:04.034Z,15.92
2023-05-06T08:05:03.918Z,15.97
2023-05-06T08:06:03.948Z,15.97
2023-05-06T08:07:03.888Z,16.06
2023-05-06T08:08:03.892Z,16.09
2023-05-06T08:09:03.859Z,16.11
2023-05-06T08:10:03.843Z,16.14
2023-05-06T08:11:03.852Z,16.20
2023-05-06T08:12:03.851Z,16.16
2023-05-06T08:13:03.873Z,16.26
2023-05-06T08:14:03.799Z,16.34
2023-05-06T08:15:03.779Z,16.40
2023-05-06T08:16:03.843Z,16.49
2023-05-06T08:17:03.779Z,16.50
2023-05-06T08:18:13.679Z,16.40
2023-05-06T08:19:04.711Z,16.45
2023-05-06T08:20:03.723Z,16.53
2023-05-06T08:21:03.734Z,16.58
2023-05-06T08:22:03.691Z,16.59
2023-05-06T08:23:03.667Z,16.73
2023-05-06T08:24:03.655Z,16.73
2023-05-06T08:25:03.642Z,16.74
2023-05-06T08:26:03.665Z,16.80
2023-05-06T08:27:03.612Z,16.90
2023-05-06T08:28:03.610Z,16.95
2023-05-06T08:29:03.586Z,17.00
2023-05-06T08:30:03.650Z,17.06
2023-05-06T08:31:03.566Z,17.08
2023-05-06T08:32:03.625Z,17.07
2023-05-06T08:33:03.594Z,17.03
2023-05-06T08:34:03.520Z,17.07
2023-05-06T08:35:03.532Z,17.11
2023-05-06T08:36:03.501Z,17.18
2023-05-06T08:37:03.477Z,17.18
2023-05-06T08:38:03.464Z,17.15
2023-05-06T08:39:03.434Z,17.18
2023-05-06T08:40:03.481Z,17.22
2023-05-06T08:41:03.445Z,17.29
2023-05-06T08:42:03.411Z,17.38
2023-05-06T08:43:03.404Z,17.43
2023-05-06T08:44:03.420Z,17.47
2023-05-06T08:45:03.360Z,17.44
2023-05-06T08:46:03.383Z,17.47
2023-05-06T08:47:03.343Z,17.57
2023-05-06T08:48:03.398Z,17.64
2023-05-06T08:49:03.344Z,17.71
2023-05-06T08:50:03.309Z,17.74
2023-05-06T08:51:03.297Z,17.76
2023-05-06T08:52:03.281Z,17.78
2023-05-06T08:53:03.325Z,17.82
2023-05-06T08:54:03.263Z,17.78
2023-05-06T08:55:03.284Z,17.78
2023-05-06T08:56:03.223Z,17.84
2023-05-06T08:57:03.210Z,17.87
2023-05-06T08:58:03.213Z,17.84
2023-05-06T08:59:03.189Z,17.84
2023-05-06T09:00:03.315Z,17.78
2023-05-06T09:01:03.203Z,17.79
2023-05-06T09:02:03.222Z,17.76
2023-05-06T09:03:03.197Z,17.66
2023-05-06T09:04:03.115Z,17.66
2023-05-06T09:05:03.104Z,17.59
2023-05-06T09:06:03.085Z,17.62
2023-05-06T09:07:03.096Z,17.64
2023-05-06T09:08:03.072Z,17.74
2023-05-06T09:09:03.044Z,17.74
2023-05-06T09:10:03.037Z,17.78
2023-05-06T09:11:03.027Z,17.85
2023-05-06T09:12:03.047Z,17.95
2023-05-06T09:13:03.090Z,18.07
2023-05-06T09:14:02.994Z,18.13
2023-05-06T09:15:02.973Z,18.21
2023-05-06T09:16:02.971Z,18.28
2023-05-06T09:17:03.032Z,18.37
2023-05-06T09:18:03.007Z,18.44
2023-05-06T09:19:02.931Z,18.55
2023-05-06T09:20:02.919Z,18.52
2023-05-06T09:21:02.875Z,18.54
2023-05-06T09:22:02.929Z,18.59
2023-05-06T09:23:02.877Z,18.54
2023-05-06T09:24:02.853Z,18.61
2023-05-06T09:25:02.824Z,18.58
2023-05-06T09:26:02.844Z,18.58
2023-05-06T09:27:02.807Z,18.47
2023-05-06T09:28:02.802Z,18.47
2023-05-06T09:29:02.775Z,18.49
2023-05-06T09:30:02.789Z,18.47
2023-05-06T09:31:02.828Z,18.57
2023-05-06T09:32:02.732Z,18.62
2023-05-06T09:33:02.757Z,18.62
2023-05-06T09:34:02.701Z,18.67
2023-05-06T09:35:02.716Z,18.65
2023-05-06T09:36:02.717Z,18.39
2023-05-06T09:37:02.667Z,18.31
2023-05-06T09:38:02.821Z,18.33
2023-05-06T09:39:02.637Z,18.46
2023-05-06T09:40:02.682Z,18.58
2023-05-06T09:41:02.644Z,18.65
2023-05-06T09:42:02.599Z,18.79
2023-05-06T09:43:02.686Z,18.86
2023-05-06T09:44:02.593Z,18.70
2023-05-06T09:45:02.629Z,18.76
2023-05-06T09:46:02.607Z,18.90
2023-05-06T09:47:02.515Z,19.02
2023-05-06T09:48:02.569Z,19.10
2023-05-06T09:49:02.540Z,19.13
2023-05-06T09:50:02.512Z,19.13
2023-05-06T09:51:02.477Z,19.06
2023-05-06T09:52:02.477Z,19.08
2023-05-06T09:53:02.457Z,19.08
2023-05-06T09:54:02.440Z,19.14
2023-05-06T09:55:02.440Z,19.17
2023-05-06T09:56:02.406Z,19.23
2023-05-06T09:57:02.381Z,19.24
2023-05-06T09:58:02.396Z,19.28
2023-05-06T09:59:02.383Z,19.25
2023-05-06T10:00:02.347Z,19.32
2023-05-06T10:01:02.320Z,19.36
2023-05-06T10:02:02.423Z,19.25
2023-05-06T10:03:02.404Z,19.20
2023-05-06T10:04:02.448Z,19.29
2023-05-06T10:05:02.477Z,19.43
2023-05-06T10:06:02.298Z,19.58
2023-05-06T10:07:02.245Z,19.61
2023-05-06T10:08:02.274Z,19.46
2023-05-06T10:09:02.228Z,19.40
2023-05-06T10:10:02.236Z,19.39
2023-05-06T10:11:02.211Z,19.35
2023-05-06T10:12:02.211Z,19.40
2023-05-06T10:13:02.234Z,19.61
2023-05-06T10:14:02.178Z,19.80
2023-05-06T10:15:02.368Z,20.03
2023-05-06T10:16:02.198Z,20.25
2023-05-06T10:17:02.157Z,20.35
2023-05-06T10:18:02.164Z,20.59
2023-05-06T10:19:02.125Z,20.69
2023-05-06T10:20:02.085Z,20.84
2023-05-06T10:21:02.076Z,20.99
2023-05-06T10:22:04.452Z,21.26
2023-05-06T10:23:02.036Z,21.48
2023-05-06T10:24:02.053Z,21.69
2023-05-06T10:25:02.007Z,21.85
2023-05-06T10:26:02.018Z,21.99
2023-05-06T10:27:02.022Z,22.09
2023-05-06T10:28:03.350Z,22.02
2023-05-06T10:29:01.953Z,22.01
2023-05-06T10:30:01.946Z,22.13
2023-05-06T10:31:01.948Z,22.12
2023-05-06T10:32:02.012Z,22.14
2023-05-06T10:33:02.005Z,22.27
2023-05-06T10:34:01.891Z,22.34
2023-05-06T10:35:01.882Z,22.49
2023-05-06T10:36:01.879Z,22.67
2023-05-06T10:37:01.854Z,23.17
2023-05-06T10:38:01.830Z,23.65
2023-05-06T10:39:01.817Z,24.12
2023-05-06T10:40:01.828Z,24.38
2023-05-06T10:41:01.842Z,24.26
2023-05-06T10:42:01.790Z,24.17
2023-05-06T10:43:01.753Z,24.41
2023-05-06T10:44:01.750Z,24.60
2023-05-06T10:45:01.767Z,24.76
2023-05-06T10:46:01.795Z,24.82
2023-05-06T10:47:01.716Z,25.07
2023-05-06T10:48:01.745Z,25.34
2023-05-06T10:49:01.675Z,25.65
2023-05-06T10:50:01.770Z,25.80
2023-05-06T10:51:01.659Z,25.91
2023-05-06T10:52:01.635Z,26.25
2023-05-06T10:53:01.623Z,25.94
2023-05-06T10:54:01.663Z,25.83
2023-05-06T10:55:01.625Z,25.91
2023-05-06T10:56:01.601Z,25.94
2023-05-06T10:57:01.561Z,25.72
2023-05-06T10:58:01.563Z,25.67
2023-05-06T10:59:01.563Z,25.84
2023-05-06T11:00:01.553Z,26.06
2023-05-06T11:01:01.553Z,26.61
2023-05-06T11:02:01.541Z,26.94
2023-05-06T11:03:01.698Z,27.36
2023-05-06T11:04:01.502Z,27.86
2023-05-06T11:05:01.453Z,28.03
2023-05-06T11:06:01.524Z,27.96
2023-05-06T11:07:01.434Z,27.46
2023-05-06T11:08:01.450Z,26.73
2023-05-06T11:09:01.441Z,26.01
2023-05-06T11:10:01.414Z,25.38
2023-05-06T11:11:01.399Z,24.77
2023-05-06T11:12:01.378Z,24.45
2023-05-06T11:13:01.415Z,24.16
2023-05-06T11:14:01.360Z,23.90
2023-05-06T11:15:01.349Z,23.75
2023-05-06T11:16:01.330Z,23.47
2023-05-06T11:17:01.450Z,23.31
2023-05-06T11:18:01.392Z,22.89
2023-05-06T11:19:01.292Z,22.75
2023-05-06T11:20:01.300Z,22.59
2023-05-06T11:21:01.280Z,22.50
2023-05-06T11:22:01.295Z,22.43
2023-05-06T11:23:01.241Z,22.52
2023-05-06T11:24:01.218Z,22.07
2023-05-06T11:25:01.204Z,21.91
2023-05-06T11:26:01.191Z,21.88
2023-05-06T11:27:01.207Z,21.99
2023-05-06T11:28:01.166Z,22.06
2023-05-06T11:29:01.155Z,22.10
2023-05-06T11:30:01.140Z,22.16
2023-05-06T11:31:01.144Z,22.22
2023-05-06T11:32:01.142Z,22.31
2023-05-06T11:33:02.206Z,22.41
2023-05-06T11:34:01.096Z,22.53
2023-05-06T11:35:01.067Z,22.56
2023-05-06T11:36:01.075Z,22.68
2023-05-06T11:37:01.064Z,22.84
2023-05-06T11:38:01.063Z,23.12
2023-05-06T11:39:01.991Z,23.19
2023-05-06T11:40:01.013Z,23.40
2023-05-06T11:41:01.009Z,23.43
2023-05-06T11:42:00.985Z,23.50
2023-05-06T11:43:00.962Z,23.82
2023-05-06T11:44:00.959Z,23.85
2023-05-06T11:45:00.936Z,23.58
2023-05-06T11:46:00.987Z,23.72
2023-05-06T11:47:00.911Z,23.97
2023-05-06T11:48:00.989Z,24.29
2023-05-06T11:49:00.887Z,24.52
2023-05-06T11:50:00.885Z,24.67
2023-05-06T11:51:00.880Z,24.75
2023-05-06T11:52:00.845Z,24.92
2023-05-06T11:53:00.828Z,25.24
2023-05-06T11:54:00.826Z,25.97
2023-05-06T11:55:00.817Z,26.20
2023-05-06T11:56:00.817Z,26.24
2023-05-06T11:57:00.775Z,26.35
2023-05-06T11:58:00.785Z,26.47
2023-05-06T11:59:00.744Z,26.76
2023-05-06T12:00:00.752Z,26.99
2023-05-06T12:01:00.712Z,27.35
2023-05-06T12:02:00.718Z,27.14
2023-05-06T12:03:00.793Z,26.87
2023-05-06T12:04:00.803Z,26.73
2023-05-06T12:05:00.762Z,26.72
2023-05-06T12:06:00.653Z,26.11
2023-05-06T12:07:00.644Z,25.61
2023-05-06T12:08:00.644Z,25.17
2023-05-06T12:09:00.638Z,25.10
2023-05-06T12:10:00.688Z,25.20
2023-05-06T12:11:00.593Z,25.44
2023-05-06T12:12:00.595Z,25.49
2023-05-06T12:13:00.649Z,25.75
2023-05-06T12:14:00.563Z,25.91
2023-05-06T12:15:00.543Z,25.90
2023-05-06T12:16:00.608Z,25.59
2023-05-06T12:17:00.510Z,26.04
2023-05-06T12:18:00.574Z,26.40
2023-05-06T12:19:00.507Z,26.73
2023-05-06T12:20:00.479Z,26.92
2023-05-06T12:21:00.464Z,27.46
2023-05-06T12:22:00.451Z,27.64
2023-05-06T12:23:00.444Z,27.85
2023-05-06T12:24:00.500Z,27.95
2023-05-06T12:25:00.406Z,28.22
2023-05-06T12:26:00.383Z,28.31
2023-05-06T12:27:00.377Z,28.44
2023-05-06T12:28:00.386Z,28.32
2023-05-06T12:29:00.401Z,27.53
2023-05-06T12:30:00.332Z,26.91
2023-05-06T12:31:00.331Z,27.17
2023-05-06T12:32:00.415Z,27.06
2023-05-06T12:33:00.391Z,27.33
2023-05-06T12:34:01.272Z,27.33
2023-05-06T12:35:00.281Z,27.39
2023-05-06T12:36:00.262Z,27.53
2023-05-06T12:37:00.264Z,27.62
2023-05-06T12:38:00.262Z,27.67
2023-05-06T12:39:00.234Z,27.89
2023-05-06T12:40:00.226Z,27.91
2023-05-06T12:41:00.211Z,27.86
2023-05-06T12:42:00.202Z,27.77
2023-05-06T12:43:00.172Z,27.86
2023-05-06T12:44:00.167Z,27.98
2023-05-06T12:45:00.212Z,27.85
2023-05-06T12:46:00.215Z,27.92
2023-05-06T12:47:00.180Z,27.79
2023-05-06T12:48:00.200Z,27.59
2023-05-06T12:49:00.158Z,27.69
2023-05-06T12:50:00.141Z,27.67
2023-05-06T12:51:00.313Z,27.53
2023-05-06T12:52:00.092Z,27.33
2023-05-06T12:53:00.732Z,26.86